Página principal
METAR-TAF:

METAR-TAF

Aeroportos :

Aeroporto Internacional do Cairo

Cairo, Egipto

latitude: 30-08N, longitude: 031-24E, altura: 64 m

Observação actual do tempo

O boletim foi feito há 18 minutos, às 10:30 UTC
Vento 8 kt de norte
Temperatura 32°C
Humidade 36%
Pressão 1009 hPa
Visibilidade: 6000 m
Nuvens dispersasa uma altura de 2500 ft

METAR: HECA 231030Z 01008KT 6000 SCT025 32/15 Q1009 NOSIG

Hora: 12:48 (10:48 UTC)

Previsão

O boletim foi feito há 5 horas e 48 minutos, às 05:00 UTC
Previsão válida de 23 às 06 UTC a 24 às 12 UTC
Vento 10 kt de norte
Visibilidade 10 km ou mais
sem nuvens abaixo de 1500 metros e sem cumulonimbus
Temporariamente
de 23 às 06 UTC a 23 às 08 UTC
Vento 3 kt com direcção variável
Visibilidade: 4000 m
neblina

TAF: HECA 230500Z 2306/2412 01010KT CAVOK TEMPO 2306/2308 VRB03KT 4000 BR NSC

Observações e previsões do tempo de mais de 4000 aeroportos (mensagens METAR e TAF).

As estações disponíveis são os pontos amarelos e vermelhos sobre o mapa.

Mova o rato sobre o mapa para ver o nome da estação.

Depois clique no ponto para visualizar as observações e previsões meteorológicas.

Para alterar o mapa : clique nos botões verdes com uma cruz preta para aumentar o zoom; no botão verde com uma pitada de zoom; ou nas setas verdes para mapas adjacentes.


METAR-TAF: